Farmville, Arkansas
Current Conditions -  °F | °C
As of 10:53 AM on Wednesday 26 Nov 2014 (Local Time) from KLLQ Reporting Station
Clear Clear  
Wind Chill: 55°   Ceiling: Unl
Heat Index: 55°   Visibility: 10mi
Dew Point: 35°   Wind: 13mph
Humidity: 47%   Direction: 210°SSW
Pressure: 30.05"   Gusts: 20mph
Location:  33.6176°N, 92.1466°W
Report Text: KLLQ 261653Z AUTO 21011G17KT 10SM CLR 13/02 A3005 RMK AO2 SLP175 T01280017
Loading
Personal Weather Stations






























Interactive Weather Map New forecast layout! Learn more

10-Day Weather Forecast

Advertisements
Track Severe Weather on mobile